sensor_id;sensor_type;location;lat;lon;timestamp;pressure;altitude;pressure_sealevel;temperature;humidity
45541;BME280;31265;49.680;8.608;2024-02-14T00:01:12;101000.19;;;3.94;100.00
45541;BME280;31265;49.680;8.608;2024-02-14T00:03:41;101004.44;;;3.90;100.00
45541;BME280;31265;49.680;8.608;2024-02-14T00:06:10;101007.69;;;3.94;100.00
45541;BME280;31265;49.680;8.608;2024-02-14T00:08:39;101005.69;;;3.94;100.00
45541;BME280;31265;49.680;8.608;2024-02-14T00:11:10;101006.44;;;3.95;100.00
45541;BME280;31265;49.680;8.608;2024-02-14T00:13:38;101002.19;;;4.05;100.00
45541;BME280;31265;49.680;8.608;2024-02-14T00:16:08;101006.66;;;4.19;100.00
45541;BME280;31265;49.680;8.608;2024-02-14T00:18:37;101008.16;;;4.26;100.00
45541;BME280;31265;49.680;8.608;2024-02-14T00:21:07;101023.13;;;4.25;100.00
45541;BME280;31265;49.680;8.608;2024-02-14T00:23:36;101022.63;;;4.32;100.00
45541;BME280;31265;49.680;8.608;2024-02-14T00:26:04;101014.41;;;4.26;100.00
45541;BME280;31265;49.680;8.608;2024-02-14T00:28:34;101020.16;;;4.28;100.00
45541;BME280;31265;49.680;8.608;2024-02-14T00:31:02;101024.63;;;4.37;100.00
45541;BME280;31265;49.680;8.608;2024-02-14T00:33:32;101010.88;;;4.48;100.00
45541;BME280;31265;49.680;8.608;2024-02-14T00:36:00;101021.38;;;4.44;100.00
45541;BME280;31265;49.680;8.608;2024-02-14T00:38:30;101018.63;;;4.44;100.00
45541;BME280;31265;49.680;8.608;2024-02-14T00:40:58;101018.38;;;4.48;100.00
45541;BME280;31265;49.680;8.608;2024-02-14T00:43:27;101025.88;;;4.53;100.00
45541;BME280;31265;49.680;8.608;2024-02-14T00:45:55;101019.59;;;4.58;100.00
45541;BME280;31265;49.680;8.608;2024-02-14T00:48:24;101008.09;;;4.60;100.00
45541;BME280;31265;49.680;8.608;2024-02-14T00:50:54;101012.56;;;4.74;100.00
45541;BME280;31265;49.680;8.608;2024-02-14T00:53:23;101008.09;;;4.65;100.00
45541;BME280;31265;49.680;8.608;2024-02-14T00:55:51;101006.09;;;4.66;100.00
45541;BME280;31265;49.680;8.608;2024-02-14T00:58:20;101003.50;;;4.90;100.00
45541;BME280;31265;49.680;8.608;2024-02-14T01:00:48;100997.06;;;4.82;100.00
45541;BME280;31265;49.680;8.608;2024-02-14T01:03:17;100998.25;;;4.87;100.00
45541;BME280;31265;49.680;8.608;2024-02-14T01:05:45;100999.03;;;4.82;100.00
45541;BME280;31265;49.680;8.608;2024-02-14T01:08:15;100991.28;;;4.86;100.00
45541;BME280;31265;49.680;8.608;2024-02-14T01:10:44;100984.50;;;4.87;100.00
45541;BME280;31265;49.680;8.608;2024-02-14T01:13:13;100996.19;;;5.04;100.00
45541;BME280;31265;49.680;8.608;2024-02-14T01:15:42;100996.25;;;4.93;100.00
45541;BME280;31265;49.680;8.608;2024-02-14T01:18:10;100983.00;;;4.97;100.00
45541;BME280;31265;49.680;8.608;2024-02-14T01:20:38;100975.28;;;4.90;100.00
45541;BME280;31265;49.680;8.608;2024-02-14T01:23:07;100977.50;;;4.97;100.00
45541;BME280;31265;49.680;8.608;2024-02-14T01:25:38;100976.22;;;4.98;100.00
45541;BME280;31265;49.680;8.608;2024-02-14T01:28:06;100979.22;;;5.00;100.00
45541;BME280;31265;49.680;8.608;2024-02-14T01:30:35;100972.69;;;5.03;100.00
45541;BME280;31265;49.680;8.608;2024-02-14T01:33:04;100976.97;;;4.99;100.00
45541;BME280;31265;49.680;8.608;2024-02-14T01:35:33;100969.16;;;5.08;100.00
45541;BME280;31265;49.680;8.608;2024-02-14T01:38:01;100967.41;;;5.11;100.00
45541;BME280;31265;49.680;8.608;2024-02-14T01:40:30;100962.63;;;5.11;100.00
45541;BME280;31265;49.680;8.608;2024-02-14T01:43:00;100974.09;;;5.27;100.00
45541;BME280;31265;49.680;8.608;2024-02-14T01:45:29;100959.34;;;5.24;100.00
45541;BME280;31265;49.680;8.608;2024-02-14T01:47:57;100949.53;;;5.29;100.00
45541;BME280;31265;49.680;8.608;2024-02-14T01:50:26;100951.75;;;5.36;100.00
45541;BME280;31265;49.680;8.608;2024-02-14T01:52:58;100940.50;;;5.34;100.00
45541;BME280;31265;49.680;8.608;2024-02-14T01:55:28;100942.69;;;5.41;100.00
45541;BME280;31265;49.680;8.608;2024-02-14T01:57:57;100947.41;;;5.46;100.00
45541;BME280;31265;49.680;8.608;2024-02-14T02:00:27;100938.41;;;5.46;100.00
45541;BME280;31265;49.680;8.608;2024-02-14T02:02:56;100940.66;;;5.47;100.00
45541;BME280;31265;49.680;8.608;2024-02-14T02:05:24;100935.34;;;5.55;100.00
45541;BME280;31265;49.680;8.608;2024-02-14T02:07:53;100942.28;;;5.67;100.00
45541;BME280;31265;49.680;8.608;2024-02-14T02:10:21;100931.72;;;5.71;100.00
45541;BME280;31265;49.680;8.608;2024-02-14T02:12:58;100937.78;;;5.64;100.00
45541;BME280;31265;49.680;8.608;2024-02-14T02:15:28;100935.72;;;5.70;100.00
45541;BME280;31265;49.680;8.608;2024-02-14T02:17:58;100931.69;;;5.77;100.00
45541;BME280;31265;49.680;8.608;2024-02-14T02:20:27;100927.19;;;5.74;100.00
45541;BME280;31265;49.680;8.608;2024-02-14T02:22:58;100924.91;;;5.78;100.00
45541;BME280;31265;49.680;8.608;2024-02-14T02:25:27;100916.38;;;5.81;100.00
45541;BME280;31265;49.680;8.608;2024-02-14T02:27:55;100913.16;;;5.77;100.00
45541;BME280;31265;49.680;8.608;2024-02-14T02:30:24;100913.09;;;5.83;100.00
45541;BME280;31265;49.680;8.608;2024-02-14T02:32:54;100911.66;;;5.76;100.00
45541;BME280;31265;49.680;8.608;2024-02-14T02:35:23;100909.16;;;5.73;100.00
45541;BME280;31265;49.680;8.608;2024-02-14T02:37:53;100910.91;;;5.76;100.00
45541;BME280;31265;49.680;8.608;2024-02-14T02:40:23;100923.09;;;5.86;100.00
45541;BME280;31265;49.680;8.608;2024-02-14T02:42:51;100920.28;;;5.92;100.00
45541;BME280;31265;49.680;8.608;2024-02-14T02:45:20;100909.47;;;5.99;100.00
45541;BME280;31265;49.680;8.608;2024-02-14T02:47:49;100925.69;;;6.03;100.00
45541;BME280;31265;49.680;8.608;2024-02-14T02:50:18;100936.16;;;6.10;100.00
45541;BME280;31265;49.680;8.608;2024-02-14T02:52:49;100935.66;;;6.12;100.00
45541;BME280;31265;49.680;8.608;2024-02-14T02:55:17;100932.56;;;6.21;100.00
45541;BME280;31265;49.680;8.608;2024-02-14T02:57:48;100932.81;;;6.17;100.00
45541;BME280;31265;49.680;8.608;2024-02-14T03:00:17;100932.03;;;6.22;100.00
45541;BME280;31265;49.680;8.608;2024-02-14T03:02:49;100939.25;;;6.25;100.00
45541;BME280;31265;49.680;8.608;2024-02-14T03:05:19;100936.50;;;6.25;100.00
45541;BME280;31265;49.680;8.608;2024-02-14T03:07:50;100944.72;;;6.31;100.00
45541;BME280;31265;49.680;8.608;2024-02-14T03:10:19;100944.25;;;6.27;100.00
45541;BME280;31265;49.680;8.608;2024-02-14T03:12:50;100931.16;;;6.33;100.00
45541;BME280;31265;49.680;8.608;2024-02-14T03:15:18;100942.81;;;6.45;100.00
45541;BME280;31265;49.680;8.608;2024-02-14T03:17:46;100953.16;;;6.39;100.00
45541;BME280;31265;49.680;8.608;2024-02-14T03:20:15;100946.38;;;6.40;100.00
45541;BME280;31265;49.680;8.608;2024-02-14T03:22:45;100947.00;;;6.52;100.00
45541;BME280;31265;49.680;8.608;2024-02-14T03:25:17;100956.97;;;6.55;100.00
45541;BME280;31265;49.680;8.608;2024-02-14T03:27:46;100945.22;;;6.54;100.00
45541;BME280;31265;49.680;8.608;2024-02-14T03:30:18;100949.16;;;6.59;100.00
45541;BME280;31265;49.680;8.608;2024-02-14T03:32:47;100951.94;;;6.59;100.00
45541;BME280;31265;49.680;8.608;2024-02-14T03:35:16;100954.69;;;6.59;100.00
45541;BME280;31265;49.680;8.608;2024-02-14T03:37:46;100961.19;;;6.61;100.00
45541;BME280;31265;49.680;8.608;2024-02-14T03:40:16;100963.44;;;6.63;100.00
45541;BME280;31265;49.680;8.608;2024-02-14T03:42:44;100959.28;;;6.75;100.00
45541;BME280;31265;49.680;8.608;2024-02-14T03:45:13;100965.53;;;6.76;100.00
45541;BME280;31265;49.680;8.608;2024-02-14T03:47:42;100969.03;;;6.76;100.00
45541;BME280;31265;49.680;8.608;2024-02-14T03:50:11;100959.84;;;6.68;100.00
45541;BME280;31265;49.680;8.608;2024-02-14T03:52:39;100959.09;;;6.67;100.00
45541;BME280;31265;49.680;8.608;2024-02-14T03:55:09;100941.38;;;6.63;100.00
45541;BME280;31265;49.680;8.608;2024-02-14T03:57:40;100951.03;;;6.70;100.00
45541;BME280;31265;49.680;8.608;2024-02-14T04:00:10;100948.13;;;6.62;100.00
45541;BME280;31265;49.680;8.608;2024-02-14T04:02:39;100954.91;;;6.61;100.00
45541;BME280;31265;49.680;8.608;2024-02-14T04:05:09;100961.78;;;6.73;100.00
45541;BME280;31265;49.680;8.608;2024-02-14T04:07:37;100959.84;;;6.68;100.00
45541;BME280;31265;49.680;8.608;2024-02-14T04:10:06;100950.59;;;6.65;100.00
45541;BME280;31265;49.680;8.608;2024-02-14T04:12:36;100952.81;;;6.67;100.00
45541;BME280;31265;49.680;8.608;2024-02-14T04:15:05;100957.03;;;6.74;100.00
45541;BME280;31265;49.680;8.608;2024-02-14T04:17:34;100961.50;;;6.77;100.00
45541;BME280;31265;49.680;8.608;2024-02-14T04:20:03;100963.03;;;6.72;100.00
45541;BME280;31265;49.680;8.608;2024-02-14T04:22:33;100955.75;;;6.75;100.00
45541;BME280;31265;49.680;8.608;2024-02-14T04:25:02;100965.97;;;6.80;100.00
45541;BME280;31265;49.680;8.608;2024-02-14T04:27:30;100979.69;;;6.85;100.00
45541;BME280;31265;49.680;8.608;2024-02-14T04:29:59;100980.72;;;6.82;100.00
45541;BME280;31265;49.680;8.608;2024-02-14T04:32:28;100963.66;;;6.84;100.00
45541;BME280;31265;49.680;8.608;2024-02-14T04:34:56;100972.75;;;6.79;100.00
45541;BME280;31265;49.680;8.608;2024-02-14T04:37:25;100969.09;;;6.71;100.00
45541;BME280;31265;49.680;8.608;2024-02-14T04:39:55;100970.56;;;6.72;100.00
45541;BME280;31265;49.680;8.608;2024-02-14T04:42:24;100972.38;;;6.69;100.00
45541;BME280;31265;49.680;8.608;2024-02-14T04:44:52;100965.59;;;6.70;100.00
45541;BME280;31265;49.680;8.608;2024-02-14T04:47:21;100966.63;;;6.67;100.00
45541;BME280;31265;49.680;8.608;2024-02-14T04:49:50;100968.78;;;6.74;100.00
45541;BME280;31265;49.680;8.608;2024-02-14T04:52:19;100969.03;;;6.76;100.00
45541;BME280;31265;49.680;8.608;2024-02-14T04:54:47;100960.50;;;6.74;100.00
45541;BME280;31265;49.680;8.608;2024-02-14T04:57:19;100963.28;;;6.74;100.00
45541;BME280;31265;49.680;8.608;2024-02-14T04:59:47;100963.44;;;6.63;100.00
45541;BME280;31265;49.680;8.608;2024-02-14T05:02:16;100964.91;;;6.64;100.00
45541;BME280;31265;49.680;8.608;2024-02-14T05:04:44;100974.88;;;6.67;100.00
45541;BME280;31265;49.680;8.608;2024-02-14T05:07:12;100978.63;;;6.70;100.00
45541;BME280;31265;49.680;8.608;2024-02-14T05:09:41;100974.66;;;6.65;100.00
45541;BME280;31265;49.680;8.608;2024-02-14T05:12:09;100972.81;;;6.73;100.00
45541;BME280;31265;49.680;8.608;2024-02-14T05:14:39;100975.44;;;6.65;100.00
45541;BME280;31265;49.680;8.608;2024-02-14T05:17:08;100983.53;;;6.58;100.00
45541;BME280;31265;49.680;8.608;2024-02-14T05:19:36;100977.47;;;6.59;100.00
45541;BME280;31265;49.680;8.608;2024-02-14T05:22:04;100961.56;;;6.71;100.00
45541;BME280;31265;49.680;8.608;2024-02-14T05:24:33;100963.81;;;6.73;100.00
45541;BME280;31265;49.680;8.608;2024-02-14T05:27:03;100968.63;;;6.66;100.00
45541;BME280;31265;49.680;8.608;2024-02-14T05:29:31;100977.41;;;6.65;100.00
45541;BME280;31265;49.680;8.608;2024-02-14T05:32:05;100972.66;;;6.65;100.00
45541;BME280;31265;49.680;8.608;2024-02-14T05:34:33;100975.88;;;6.70;100.00
45541;BME280;31265;49.680;8.608;2024-02-14T05:37:02;100977.59;;;6.73;100.00
45541;BME280;31265;49.680;8.608;2024-02-14T05:39:30;100984.59;;;6.74;100.00
45541;BME280;31265;49.680;8.608;2024-02-14T05:41:59;100968.66;;;6.85;100.00
45541;BME280;31265;49.680;8.608;2024-02-14T05:44:27;100975.19;;;6.82;100.00
45541;BME280;31265;49.680;8.608;2024-02-14T05:46:57;100978.56;;;6.75;100.00
45541;BME280;31265;49.680;8.608;2024-02-14T05:49:27;100979.59;;;6.72;100.00
45541;BME280;31265;49.680;8.608;2024-02-14T05:51:55;100979.53;;;6.78;100.00
45541;BME280;31265;49.680;8.608;2024-02-14T05:54:23;100996.38;;;6.74;100.00
45541;BME280;31265;49.680;8.608;2024-02-14T05:56:52;100993.53;;;6.80;100.00
45541;BME280;31265;49.680;8.608;2024-02-14T05:59:22;100978.56;;;6.75;100.00
45541;BME280;31265;49.680;8.608;2024-02-14T06:01:51;100986.53;;;6.79;100.00
45541;BME280;31265;49.680;8.608;2024-02-14T06:04:20;100983.47;;;6.82;100.00
45541;BME280;31265;49.680;8.608;2024-02-14T06:06:50;100981.72;;;6.85;100.00
45541;BME280;31265;49.680;8.608;2024-02-14T06:09:20;100987.44;;;6.87;100.00
45541;BME280;31265;49.680;8.608;2024-02-14T06:11:49;100984.75;;;6.81;100.00
45541;BME280;31265;49.680;8.608;2024-02-14T06:14:17;100980.53;;;6.80;100.00
45541;BME280;31265;49.680;8.608;2024-02-14T06:16:46;100981.50;;;6.83;100.00
45541;BME280;31265;49.680;8.608;2024-02-14T06:19:15;100973.88;;;6.70;100.00
45541;BME280;31265;49.680;8.608;2024-02-14T06:21:44;100985.91;;;6.67;100.00
45541;BME280;31265;49.680;8.608;2024-02-14T06:24:13;100995.63;;;6.74;100.00
45541;BME280;31265;49.680;8.608;2024-02-14T06:26:43;101003.41;;;6.75;100.00
45541;BME280;31265;49.680;8.608;2024-02-14T06:29:11;101006.72;;;6.93;100.00
45541;BME280;31265;49.680;8.608;2024-02-14T06:31:40;101008.31;;;6.82;100.00
45541;BME280;31265;49.680;8.608;2024-02-14T06:34:09;101007.63;;;6.76;100.00
45541;BME280;31265;49.680;8.608;2024-02-14T06:36:39;101006.91;;;6.76;100.00
45541;BME280;31265;49.680;8.608;2024-02-14T06:39:07;101005.84;;;6.79;100.00
45541;BME280;31265;49.680;8.608;2024-02-14T06:41:37;101025.63;;;6.83;100.00
45541;BME280;31265;49.680;8.608;2024-02-14T06:44:07;101026.44;;;6.78;100.00
45541;BME280;31265;49.680;8.608;2024-02-14T06:46:35;101033.94;;;6.77;100.00
45541;BME280;31265;49.680;8.608;2024-02-14T06:49:05;101038.22;;;6.97;100.00
45541;BME280;31265;49.680;8.608;2024-02-14T06:51:34;101028.81;;;6.87;100.00
45541;BME280;31265;49.680;8.608;2024-02-14T06:54:02;101032.03;;;6.91;100.00
45541;BME280;31265;49.680;8.608;2024-02-14T06:56:31;101037.09;;;6.87;100.00
45541;BME280;31265;49.680;8.608;2024-02-14T06:59:01;101043.97;;;6.80;100.00
45541;BME280;31265;49.680;8.608;2024-02-14T07:01:30;101045.59;;;6.89;100.00
45541;BME280;31265;49.680;8.608;2024-02-14T07:03:58;101037.25;;;6.95;100.00
45541;BME280;31265;49.680;8.608;2024-02-14T07:06:28;101048.59;;;6.91;100.00
45541;BME280;31265;49.680;8.608;2024-02-14T07:08:56;101042.09;;;6.88;100.00
45541;BME280;31265;49.680;8.608;2024-02-14T07:11:25;101044.13;;;6.88;100.00
45541;BME280;31265;49.680;8.608;2024-02-14T07:13:56;101045.25;;;6.98;100.00
45541;BME280;31265;49.680;8.608;2024-02-14T07:16:27;101049.06;;;6.95;100.00
45541;BME280;31265;49.680;8.608;2024-02-14T07:18:55;101044.75;;;7.00;100.00
45541;BME280;31265;49.680;8.608;2024-02-14T07:21:24;101048.00;;;6.98;100.00
45541;BME280;31265;49.680;8.608;2024-02-14T07:23:53;101063.06;;;6.97;100.00
45541;BME280;31265;49.680;8.608;2024-02-14T07:26:22;101054.75;;;7.03;100.00
45541;BME280;31265;49.680;8.608;2024-02-14T07:28:50;101057.03;;;6.99;100.00
45541;BME280;31265;49.680;8.608;2024-02-14T07:31:18;101054.00;;;7.02;100.00
45541;BME280;31265;49.680;8.608;2024-02-14T07:33:49;101053.78;;;7.19;100.00
45541;BME280;31265;49.680;8.608;2024-02-14T07:36:21;101056.19;;;7.28;100.00
45541;BME280;31265;49.680;8.608;2024-02-14T07:38:49;101046.03;;;7.37;100.00
45541;BME280;31265;49.680;8.608;2024-02-14T07:41:18;101057.44;;;7.46;100.00
45541;BME280;31265;49.680;8.608;2024-02-14T07:43:46;101054.41;;;7.50;100.00
45541;BME280;31265;49.680;8.608;2024-02-14T07:46:17;101044.84;;;7.51;100.00
45541;BME280;31265;49.680;8.608;2024-02-14T07:48:46;101059.09;;;7.55;100.00
45541;BME280;31265;49.680;8.608;2024-02-14T07:51:19;101055.38;;;7.52;100.00
45541;BME280;31265;49.680;8.608;2024-02-14T07:53:48;101056.47;;;7.44;100.00
45541;BME280;31265;49.680;8.608;2024-02-14T07:56:17;101060.00;;;7.44;100.00
45541;BME280;31265;49.680;8.608;2024-02-14T07:58:45;101058.22;;;7.47;100.00
45541;BME280;31265;49.680;8.608;2024-02-14T08:01:14;101059.69;;;7.48;100.00
45541;BME280;31265;49.680;8.608;2024-02-14T08:03:43;101060.97;;;7.47;100.00
45541;BME280;31265;49.680;8.608;2024-02-14T08:06:13;101061.56;;;7.40;100.00
45541;BME280;31265;49.680;8.608;2024-02-14T08:08:43;101059.47;;;7.46;100.00
45541;BME280;31265;49.680;8.608;2024-02-14T08:11:11;101057.44;;;7.46;100.00
45541;BME280;31265;49.680;8.608;2024-02-14T08:13:40;101060.16;;;7.52;100.00
45541;BME280;31265;49.680;8.608;2024-02-14T08:16:08;101063.09;;;7.54;100.00
45541;BME280;31265;49.680;8.608;2024-02-14T08:18:36;101064.16;;;7.51;100.00
45541;BME280;31265;49.680;8.608;2024-02-14T08:21:05;101065.06;;;7.59;100.00
45541;BME280;31265;49.680;8.608;2024-02-14T08:23:34;101059.75;;;7.61;100.00
45541;BME280;31265;49.680;8.608;2024-02-14T08:26:04;101070.56;;;7.78;100.00
45541;BME280;31265;49.680;8.608;2024-02-14T08:28:38;101080.03;;;7.83;100.00
45541;BME280;31265;49.680;8.608;2024-02-14T08:31:10;101083.31;;;7.81;100.00
45541;BME280;31265;49.680;8.608;2024-02-14T08:33:38;101082.34;;;7.79;100.00
45541;BME280;31265;49.680;8.608;2024-02-14T08:36:07;101085.63;;;7.96;100.00
45541;BME280;31265;49.680;8.608;2024-02-14T08:38:36;101090.28;;;7.88;100.00
45541;BME280;31265;49.680;8.608;2024-02-14T08:41:07;101085.47;;;7.88;100.00
45541;BME280;31265;49.680;8.608;2024-02-14T08:43:35;101084.13;;;7.95;100.00
45541;BME280;31265;49.680;8.608;2024-02-14T08:46:09;101079.66;;;7.92;100.00
45541;BME280;31265;49.680;8.608;2024-02-14T08:48:37;101077.56;;;7.98;100.00
45541;BME280;31265;49.680;8.608;2024-02-14T08:51:09;101079.94;;;8.07;100.00
45541;BME280;31265;49.680;8.608;2024-02-14T08:53:39;101070.22;;;8.01;100.00
45541;BME280;31265;49.680;8.608;2024-02-14T08:56:11;101072.25;;;8.00;100.00
45541;BME280;31265;49.680;8.608;2024-02-14T08:58:39;101075.25;;;8.02;100.00
45541;BME280;31265;49.680;8.608;2024-02-14T09:01:08;101066.84;;;8.08;100.00
45541;BME280;31265;49.680;8.608;2024-02-14T09:03:42;101062.41;;;8.18;100.00
45541;BME280;31265;49.680;8.608;2024-02-14T09:06:16;101069.19;;;8.04;100.00
45541;BME280;31265;49.680;8.608;2024-02-14T09:08:48;101060.94;;;8.17;100.00
45541;BME280;31265;49.680;8.608;2024-02-14T09:11:19;101072.94;;;8.19;100.00
45541;BME280;31265;49.680;8.608;2024-02-14T09:13:48;101062.97;;;8.30;100.00
45541;BME280;31265;49.680;8.608;2024-02-14T09:16:20;101072.63;;;8.55;100.00
45541;BME280;31265;49.680;8.608;2024-02-14T09:18:49;101066.44;;;8.63;100.00
45541;BME280;31265;49.680;8.608;2024-02-14T09:21:18;101066.44;;;8.63;100.00
45541;BME280;31265;49.680;8.608;2024-02-14T09:23:47;101060.00;;;8.73;100.00
45541;BME280;31265;49.680;8.608;2024-02-14T09:26:20;101057.19;;;9.00;100.00
45541;BME280;31265;49.680;8.608;2024-02-14T09:28:48;101054.25;;;8.98;100.00
45541;BME280;31265;49.680;8.608;2024-02-14T09:31:17;101056.88;;;9.03;100.00
45541;BME280;31265;49.680;8.608;2024-02-14T09:33:46;101058.59;;;9.07;100.00
45541;BME280;31265;49.680;8.608;2024-02-14T09:36:16;101058.16;;;9.16;100.00
45541;BME280;31265;49.680;8.608;2024-02-14T09:38:44;101060.44;;;9.38;100.00
45541;BME280;31265;49.680;8.608;2024-02-14T09:41:15;101057.28;;;9.21;100.00
45541;BME280;31265;49.680;8.608;2024-02-14T09:43:49;101070.28;;;9.26;100.00
45541;BME280;31265;49.680;8.608;2024-02-14T09:46:18;101064.72;;;9.26;100.00
45541;BME280;31265;49.680;8.608;2024-02-14T09:48:47;101079.56;;;9.15;100.00
45541;BME280;31265;49.680;8.608;2024-02-14T09:51:15;101080.94;;;9.09;100.00
45541;BME280;31265;49.680;8.608;2024-02-14T09:53:45;101071.59;;;8.98;100.00
45541;BME280;31265;49.680;8.608;2024-02-14T09:56:15;101074.75;;;9.02;100.00
45541;BME280;31265;49.680;8.608;2024-02-14T09:58:46;101077.44;;;8.95;100.00
45541;BME280;31265;49.680;8.608;2024-02-14T10:01:24;101075.53;;;9.03;100.00
45541;BME280;31265;49.680;8.608;2024-02-14T10:03:54;101079.34;;;9.13;100.00
45541;BME280;31265;49.680;8.608;2024-02-14T10:06:23;101080.81;;;9.28;100.00
45541;BME280;31265;49.680;8.608;2024-02-14T10:08:53;101080.72;;;9.20;100.00
45541;BME280;31265;49.680;8.608;2024-02-14T10:11:30;101080.28;;;9.29;100.00
45541;BME280;31265;49.680;8.608;2024-02-14T10:14:00;101088.56;;;9.42;100.00
45541;BME280;31265;49.680;8.608;2024-02-14T10:16:34;101087.31;;;9.17;100.00
45541;BME280;31265;49.680;8.608;2024-02-14T10:19:03;101085.31;;;9.17;100.00
45541;BME280;31265;49.680;8.608;2024-02-14T10:21:34;101086.16;;;9.25;100.00
45541;BME280;31265;49.680;8.608;2024-02-14T10:24:03;101089.53;;;9.32;100.00
45541;BME280;31265;49.680;8.608;2024-02-14T10:26:34;101095.94;;;9.40;100.00
45541;BME280;31265;49.680;8.608;2024-02-14T10:29:02;101094.28;;;9.58;100.00
45541;BME280;31265;49.680;8.608;2024-02-14T10:31:32;101094.00;;;9.82;100.00
45541;BME280;31265;49.680;8.608;2024-02-14T10:34:02;101093.47;;;10.05;100.00
45541;BME280;31265;49.680;8.608;2024-02-14T10:36:33;101095.44;;;9.97;100.00
45541;BME280;31265;49.680;8.608;2024-02-14T10:39:04;101099.91;;;10.00;100.00
45541;BME280;31265;49.680;8.608;2024-02-14T10:41:35;101112.97;;;9.78;100.00
45541;BME280;31265;49.680;8.608;2024-02-14T10:44:04;101119.97;;;9.93;100.00
45541;BME280;31265;49.680;8.608;2024-02-14T10:46:37;101108.84;;;9.72;100.00
45541;BME280;31265;49.680;8.608;2024-02-14T10:49:06;101110.19;;;9.57;100.00
45541;BME280;31265;49.680;8.608;2024-02-14T10:51:38;101111.44;;;9.56;100.00
45541;BME280;31265;49.680;8.608;2024-02-14T10:54:10;101105.13;;;9.69;100.00
45541;BME280;31265;49.680;8.608;2024-02-14T10:56:48;101097.66;;;9.64;100.00
45541;BME280;31265;49.680;8.608;2024-02-14T10:59:19;101100.22;;;9.75;100.00
45541;BME280;31265;49.680;8.608;2024-02-14T11:01:50;101097.44;;;9.75;100.00
45541;BME280;31265;49.680;8.608;2024-02-14T11:04:20;101106.25;;;9.87;100.00
45541;BME280;31265;49.680;8.608;2024-02-14T11:06:53;101113.47;;;9.90;100.00
45541;BME280;31265;49.680;8.608;2024-02-14T11:09:22;101109.59;;;9.72;100.00
45541;BME280;31265;49.680;8.608;2024-02-14T11:11:59;101115.53;;;9.76;100.00
45541;BME280;31265;49.680;8.608;2024-02-14T11:14:31;101109.41;;;9.70;100.00
45541;BME280;31265;49.680;8.608;2024-02-14T11:17:02;101110.25;;;9.65;100.00
45541;BME280;31265;49.680;8.608;2024-02-14T11:19:31;101113.44;;;9.69;100.00
45541;BME280;31265;49.680;8.608;2024-02-14T11:22:10;101115.97;;;9.80;100.00
45541;BME280;31265;49.680;8.608;2024-02-14T11:24:40;101117.41;;;9.95;100.00
45541;BME280;31265;49.680;8.608;2024-02-14T11:27:12;101112.91;;;9.71;100.00
45541;BME280;31265;49.680;8.608;2024-02-14T11:30:00;101102.16;;;9.67;100.00
45541;BME280;31265;49.680;8.608;2024-02-14T11:32:33;101098.53;;;9.72;100.00
45541;BME280;31265;49.680;8.608;2024-02-14T11:35:02;101090.56;;;9.89;100.00
45541;BME280;31265;49.680;8.608;2024-02-14T11:37:33;101099.44;;;10.09;100.00
45541;BME280;31265;49.680;8.608;2024-02-14T11:40:02;101099.25;;;10.07;100.00
45541;BME280;31265;49.680;8.608;2024-02-14T11:42:31;101099.44;;;10.09;100.00
45541;BME280;31265;49.680;8.608;2024-02-14T11:44:59;101098.88;;;10.10;100.00
45541;BME280;31265;49.680;8.608;2024-02-14T11:47:28;101085.97;;;10.13;100.00
45541;BME280;31265;49.680;8.608;2024-02-14T11:49:58;101093.47;;;10.05;100.00
45541;BME280;31265;49.680;8.608;2024-02-14T11:52:27;101087.41;;;10.06;100.00
45541;BME280;31265;49.680;8.608;2024-02-14T11:54:56;101087.72;;;10.03;100.00
45541;BME280;31265;49.680;8.608;2024-02-14T11:57:26;101096.25;;;10.05;100.00
45541;BME280;31265;49.680;8.608;2024-02-14T11:59:55;101082.19;;;10.03;100.00
45541;BME280;31265;49.680;8.608;2024-02-14T12:02:23;101076.84;;;10.05;100.00
45541;BME280;31265;49.680;8.608;2024-02-14T12:04:53;101074.50;;;10.09;100.00
45541;BME280;31265;49.680;8.608;2024-02-14T12:07:26;101077.25;;;10.09;100.00
45541;BME280;31265;49.680;8.608;2024-02-14T12:09:55;101072.47;;;10.30;100.00
45541;BME280;31265;49.680;8.608;2024-02-14T12:12:23;101079.56;;;10.39;100.00
45541;BME280;31265;49.680;8.608;2024-02-14T12:14:52;101079.34;;;10.58;100.00
45541;BME280;31265;49.680;8.608;2024-02-14T12:17:20;101081.53;;;10.81;100.00
45541;BME280;31265;49.680;8.608;2024-02-14T12:19:49;101086.28;;;11.01;100.00
45541;BME280;31265;49.680;8.608;2024-02-14T12:22:19;101091.47;;;11.05;100.00
45541;BME280;31265;49.680;8.608;2024-02-14T12:24:50;101091.59;;;11.28;100.00
45541;BME280;31265;49.680;8.608;2024-02-14T12:27:19;101087.91;;;11.33;100.00
45541;BME280;31265;49.680;8.608;2024-02-14T12:29:48;101082.59;;;11.43;100.00
45541;BME280;31265;49.680;8.608;2024-02-14T12:32:17;101082.44;;;11.63;100.00
45541;BME280;31265;49.680;8.608;2024-02-14T12:34:46;101078.00;;;11.60;100.00
45541;BME280;31265;49.680;8.608;2024-02-14T12:37:15;101078.94;;;11.71;100.00
45541;BME280;31265;49.680;8.608;2024-02-14T12:39:43;101069.50;;;11.81;100.00
45541;BME280;31265;49.680;8.608;2024-02-14T12:42:13;101070.63;;;11.86;100.00
45541;BME280;31265;49.680;8.608;2024-02-14T12:44:41;101063.94;;;11.81;100.00
45541;BME280;31265;49.680;8.608;2024-02-14T12:47:09;101073.09;;;12.05;100.00
45541;BME280;31265;49.680;8.608;2024-02-14T12:49:38;101071.41;;;11.87;100.00
45541;BME280;31265;49.680;8.608;2024-02-14T12:52:07;101072.06;;;11.64;100.00
45541;BME280;31265;49.680;8.608;2024-02-14T12:54:35;101068.28;;;11.31;100.00
45541;BME280;31265;49.680;8.608;2024-02-14T12:57:04;101071.94;;;11.26;100.00
45541;BME280;31265;49.680;8.608;2024-02-14T12:59:33;101074.69;;;11.18;100.00